Time;durP1;ratioP1;P1;durP2;ratioP2;P2;SDS_P1;SDS_P2;PMS_P1;PMS_P2;Temp;Humidity;BMP_temperature;BMP_pressure;BME280_temperature;BME280_humidity;BME280_pressure;Samples;Min_cycle;Max_cycle;Signal;HPM_P1;HPM_P2
2022/11/05 10:21:32;;;;;;;49.70;44.35;;;;;;;24.15;70.50;100541.97;5057765;27;20411;-84
2022/11/05 10:24:00;;;;;;;49.92;45.10;;;;;;;23.29;68.21;100544.25;5056921;28;20416;-85
2022/11/05 10:26:28;;;;;;;51.17;46.28;;;;;;;24.02;62.54;100540.03;5069277;28;20127;-82
2022/11/05 10:28:56;;;;;;;51.53;46.90;;;;;;;24.12;62.96;100539.06;5063301;28;20404;-82
2022/11/05 10:31:24;;;;;;;51.20;45.75;;;;;;;24.08;63.09;100540.75;5059213;28;20063;-82
2022/11/05 10:33:54;;;;;;;49.53;44.83;;;;;;;25.22;73.36;100532.66;5057365;28;20049;-83
2022/11/05 10:36:24;;;;;;;52.45;47.45;;;;;;;25.04;71.13;100532.50;5055729;28;20049;-82
2022/11/05 10:39:00;;;;;;;52.55;47.85;;;;;;;24.68;71.39;100527.06;5069205;28;20041;-85
2022/11/05 10:41:46;;;;;;;54.05;48.78;;;;;;;24.33;71.13;100529.41;5056732;28;20048;-85
2022/11/05 10:44:29;;;;;;;52.90;47.45;;;;;;;25.03;73.20;100522.75;5066380;28;20405;-84
2022/11/05 10:47:08;;;;;;;53.05;48.05;;;;;;;24.07;68.91;100529.09;5067356;28;20485;-82
2022/11/05 10:49:56;;;;;;;53.83;48.38;;;;;;;23.79;66.40;100535.59;5064290;28;20489;-83
2022/11/05 10:52:25;;;;;;;53.22;48.30;;;;;;;24.76;80.13;100529.06;5062545;28;20064;-83
2022/11/05 10:54:58;;;;;;;52.60;47.72;;;;;;;24.95;74.91;100522.69;5055169;28;20067;-83
2022/11/05 10:57:36;;;;;;;55.38;50.15;;;;;;;23.96;63.14;100517.66;5064590;28;20049;-83
2022/11/05 11:00:35;;;;;;;55.47;50.03;;;;;;;23.08;76.92;100516.66;5072481;28;20041;-82
2022/11/05 11:03:34;;;;;;;55.05;49.85;;;;;;;24.79;78.12;100511.38;4993390;28;20069;-83
2022/11/05 11:06:06;;;;;;;57.25;51.50;;;;;;;25.02;74.28;100507.53;5049422;28;20057;-85
2022/11/05 11:08:35;;;;;;;56.03;50.60;;;;;;;25.64;69.88;100511.50;5049675;28;20472;-84
2022/11/05 11:11:07;;;;;;;54.22;49.33;;;;;;;24.99;56.03;100510.06;5049759;28;20497;-84
2022/11/05 11:13:51;;;;;;;56.03;50.92;;;;;;;24.29;73.13;100508.59;5049273;28;20053;-85
2022/11/05 11:16:21;;;;;;;54.40;49.65;;;;;;;23.28;63.71;100502.81;5054427;28;20053;-85
2022/11/05 11:18:53;;;;;;;57.35;51.92;;;;;;;24.78;68.02;100491.56;5045082;28;20052;-85
2022/11/05 11:21:22;;;;;;;;;;;;;;;24.68;77.39;100489.84;5047022;28;20813;-84
2022/11/05 11:23:55;;;;;;;57.33;51.35;;;;;;;23.95;61.97;100485.41;5046766;28;19920;-83
2022/11/05 11:26:25;;;;;;;56.58;51.40;;;;;;;23.28;75.64;100483.03;5042860;28;20045;-84
2022/11/05 11:28:57;;;;;;;55.75;50.30;;;;;;;23.44;69.02;100481.66;5043880;28;20056;-83
2022/11/05 11:31:25;;;;;;;;;;;;;;;24.07;84.59;100480.28;5036373;28;20389;-82
2022/11/05 11:34:00;;;;;;;54.95;49.55;;;;;;;23.29;62.31;100476.50;5032472;28;19921;-83
2022/11/05 11:36:34;;;;;;;55.72;50.25;;;;;;;23.99;73.01;100479.09;5030310;28;20045;-83
2022/11/05 11:39:03;;;;;;;54.45;49.22;;;;;;;24.14;83.90;100472.50;5033574;28;20241;-82
2022/11/05 11:41:35;;;;;;;56.10;50.78;;;;;;;24.39;71.61;100460.34;4997980;28;20057;-81
2022/11/05 11:44:07;;;;;;;55.45;50.15;;;;;;;24.13;64.15;100470.13;5054289;28;20057;-84
2022/11/05 11:46:35;;;;;;;;;;;;;;;24.96;68.10;100484.31;5033710;28;20049;-82
2022/11/05 11:49:03;;;;;;;57.42;51.95;;;;;;;24.92;60.45;100481.44;5035672;28;19921;-81
2022/11/05 11:51:35;;;;;;;56.53;51.13;;;;;;;24.81;74.90;100476.53;5030284;28;20117;-82
2022/11/05 11:54:04;;;;;;;54.25;49.38;;;;;;;23.88;57.31;100477.66;5030033;28;20402;-83
2022/11/05 11:56:43;;;;;;;54.95;49.75;;;;;;;24.15;79.45;100470.63;5032091;28;20095;-83
2022/11/05 11:59:23;;;;;;;56.67;50.75;;;;;;;24.56;81.70;100472.50;5038157;28;20053;-82
2022/11/05 12:02:22;;;;;;;54.78;49.72;;;;;;;23.35;68.91;100488.06;5033229;28;20627;-84
2022/11/05 12:05:19;;;;;;;57.63;52.30;;;;;;;24.65;83.27;100476.09;5031506;28;20052;-84
2022/11/05 12:07:54;;;;;;;58.47;52.83;;;;;;;24.12;80.96;100488.31;5023518;28;20389;-84
2022/11/05 12:10:40;;;;;;;57.17;51.83;;;;;;;24.05;69.50;100479.75;5038109;28;20107;-82
2022/11/05 12:13:56;;;;;;;57.03;51.88;;;;;;;24.53;74.11;100479.34;5039107;28;20041;-82
2022/11/05 12:16:54;;;;;;;55.40;50.33;;;;;;;23.28;76.53;100493.88;4995314;28;20061;-82
2022/11/05 12:19:35;;;;;;;58.08;52.35;;;;;;;24.21;82.47;100478.34;5036265;28;20060;-82
2022/11/05 12:22:13;;;;;;;56.60;51.07;;;;;;;23.87;77.72;100478.75;5033849;28;20433;-83
2022/11/05 12:25:00;;;;;;;56.10;50.63;;;;;;;23.15;85.07;100481.91;5033300;28;20406;-83
2022/11/05 12:27:48;;;;;;;57.65;52.05;;;;;;;24.31;87.25;100473.81;5032127;28;20064;-84
2022/11/05 12:30:17;;;;;;;55.75;50.40;;;;;;;24.19;86.37;100469.72;5035204;28;20084;-81
2022/11/05 12:33:06;;;;;;;57.05;51.30;;;;;;;23.47;71.73;100478.38;5035182;28;20100;-83
2022/11/05 12:35:51;;;;;;;57.03;51.65;;;;;;;24.70;70.80;100461.59;5033549;28;20053;-82
2022/11/05 12:38:29;;;;;;;58.25;52.22;;;;;;;24.29;79.93;100465.97;5033908;28;20049;-83
2022/11/05 12:41:08;;;;;;;55.22;49.85;;;;;;;23.31;77.84;100467.00;5034002;28;20046;-85
2022/11/05 12:43:51;;;;;;;57.15;51.72;;;;;;;22.94;80.61;100464.34;5032760;28;20195;-84
2022/11/05 12:46:29;;;;;;;57.10;51.63;;;;;;;24.30;92.26;100459.47;5031202;28;20081;-85
2022/11/05 12:49:22;;;;;;;55.78;50.40;;;;;;;23.65;89.43;100460.44;5034433;28;20045;-85
2022/11/05 12:52:06;;;;;;;56.42;50.63;;;;;;;23.47;92.54;100458.59;5033095;28;20042;-86
2022/11/05 12:54:47;;;;;;;56.15;50.72;;;;;;;22.66;93.80;100461.47;5033145;28;20060;-84
2022/11/05 12:57:16;;;;;;;56.17;50.53;;;;;;;22.01;98.68;100453.91;5032988;28;20694;-82
2022/11/05 12:59:51;;;;;;;56.42;50.15;;;;;;;22.39;100.00;100462.13;5035443;28;20152;-82
2022/11/05 13:02:25;;;;;;;54.78;49.40;;;;;;;21.89;100.00;100453.50;5033371;28;20053;-82
2022/11/05 13:04:57;;;;;;;58.65;52.95;;;;;;;22.34;100.00;100456.78;5035177;28;20103;-83
2022/11/05 13:07:30;;;;;;;57.55;51.60;;;;;;;21.65;92.67;100462.41;5027367;28;20049;-83
2022/11/05 13:10:01;;;;;;;55.63;50.10;;;;;;;22.28;100.00;100456.03;5026871;28;20060;-84
2022/11/05 13:12:33;;;;;;;58.13;52.15;;;;;;;22.90;100.00;100463.28;5032281;28;20084;-84
2022/11/05 13:15:02;;;;;;;;;;;;;;;22.81;100.00;100468.56;5034745;28;20191;-83
2022/11/05 13:17:35;;;;;;;60.70;54.92;;;;;;;22.15;100.00;100462.94;5033685;28;19921;-85
2022/11/05 13:20:13;;;;;;;57.90;52.15;;;;;;;21.96;100.00;100459.38;5026852;28;20060;-82
2022/11/05 13:22:44;;;;;;;56.80;51.28;;;;;;;21.55;100.00;100461.72;5034197;28;20053;-83
2022/11/05 13:25:19;;;;;;;56.97;51.38;;;;;;;21.17;100.00;100456.88;5030391;28;20052;-85
2022/11/05 13:27:55;;;;;;;60.40;53.38;;;;;;;21.34;100.00;100458.38;5034326;28;20053;-83
2022/11/05 13:30:24;;;;;;;57.58;51.60;;;;;;;21.03;100.00;100472.13;5030241;28;20467;-82
2022/11/05 13:32:58;;;;;;;59.42;53.63;;;;;;;20.61;100.00;100461.88;5026798;28;20057;-84
2022/11/05 13:35:31;;;;;;;59.70;53.70;;;;;;;20.90;100.00;100457.34;5027697;28;20045;-84
2022/11/05 13:41:04;;;;;;;57.47;51.53;;;;;;;20.57;100.00;100464.31;5034071;28;20397;-81
2022/11/05 13:43:45;;;;;;;57.08;51.33;;;;;;;20.62;100.00;100463.47;5032453;28;20056;-83
2022/11/05 13:46:30;;;;;;;58.75;52.55;;;;;;;20.66;100.00;100464.53;5029642;28;20060;-82
2022/11/05 13:49:11;;;;;;;55.97;50.13;;;;;;;20.62;100.00;100476.97;5032724;28;20057;-82
2022/11/05 13:51:52;;;;;;;57.08;51.05;;;;;;;20.11;100.00;100469.88;5023226;28;20165;-83
2022/11/05 13:54:55;;;;;;;56.42;50.67;;;;;;;20.24;100.00;100471.19;5028732;28;20398;-82
2022/11/05 13:57:39;;;;;;;58.17;51.90;;;;;;;20.25;100.00;100476.31;5031561;28;20469;-83
2022/11/05 14:00:12;;;;;;;57.67;51.67;;;;;;;19.55;100.00;100481.59;5031944;28;20045;-85
2022/11/05 14:02:43;;;;;;;56.30;50.20;;;;;;;19.66;100.00;100480.50;5032520;28;20049;-84
2022/11/05 14:05:24;;;;;;;56.40;50.55;;;;;;;19.94;100.00;100477.47;5025926;28;20053;-84
2022/11/05 14:07:53;;;;;;;57.88;52.03;;;;;;;19.83;100.00;100490.19;5021300;28;20057;-86
2022/11/05 14:10:28;;;;;;;58.55;52.58;;;;;;;19.89;100.00;100479.13;5027834;28;20045;-82
2022/11/05 14:12:56;;;;;;;59.42;53.22;;;;;;;19.70;100.00;100486.19;5030832;28;20041;-83
2022/11/05 14:15:26;;;;;;;64.72;54.90;;;;;;;19.63;100.00;100485.59;5031000;28;20437;-83
2022/11/05 14:17:56;;;;;;;60.72;53.53;;;;;;;19.43;100.00;100476.47;5029324;28;20496;-82
2022/11/05 14:20:43;;;;;;;57.00;51.60;;;;;;;19.05;100.00;100485.88;5024395;28;20138;-82
2022/11/05 14:23:47;;;;;;;59.20;53.45;;;;;;;19.12;100.00;100491.81;5027768;28;20050;-83
2022/11/05 14:26:21;;;;;;;64.20;57.00;;;;;;;19.16;100.00;100481.31;5030575;28;20054;-84
2022/11/05 14:29:08;;;;;;;59.63;53.47;;;;;;;18.93;100.00;100477.25;5032884;28;20049;-82
2022/11/05 14:31:56;;;;;;;58.95;52.83;;;;;;;18.80;100.00;100493.94;5023949;28;20125;-83
2022/11/05 14:34:41;;;;;;;63.45;52.38;;;;;;;18.87;100.00;100489.09;5024786;28;20049;-84
2022/11/05 14:37:33;;;;;;;57.30;51.40;;;;;;;18.84;100.00;100500.38;5030645;28;20053;-83
2022/11/05 14:40:36;;;;;;;52.90;47.63;;;;;;;18.68;100.00;100494.94;5036390;28;20457;-83
2022/11/05 14:43:05;;;;;;;;;;;;;;;18.66;100.00;100489.00;5032470;28;20061;-85
2022/11/05 14:45:56;;;;;;;56.67;51.25;;;;;;;18.66;100.00;100485.50;5033043;28;20273;-82
2022/11/05 14:48:36;;;;;;;54.90;49.65;;;;;;;18.48;100.00;100484.91;5032571;28;20060;-83
2022/11/05 14:51:19;;;;;;;57.40;51.95;;;;;;;18.37;100.00;100483.28;5032820;28;20466;-84
2022/11/05 14:53:47;;;;;;;65.93;59.05;;;;;;;18.28;100.00;100492.91;5030561;28;20045;-82
2022/11/05 14:56:17;;;;;;;71.30;63.55;;;;;;;18.35;100.00;100487.28;5032884;28;20087;-84
2022/11/05 14:58:46;;;;;;;54.90;49.40;;;;;;;18.18;100.00;100493.66;5032010;28;20053;-84
2022/11/05 15:01:47;;;;;;;57.08;51.35;;;;;;;18.35;100.00;100489.97;5027983;28;20050;-83
2022/11/05 15:04:25;;;;;;;57.20;51.72;;;;;;;18.28;100.00;100493.72;5026332;28;20148;-84
2022/11/05 15:07:29;;;;;;;56.40;50.67;;;;;;;18.27;100.00;100500.16;5027080;28;20046;-84
2022/11/05 15:10:01;;;;;;;54.85;49.72;;;;;;;18.11;100.00;100495.78;5031217;28;20050;-84
2022/11/05 15:12:34;;;;;;;61.80;56.22;;;;;;;18.10;100.00;100490.69;5032255;28;20046;-85
2022/11/05 15:15:16;;;;;;;59.63;54.40;;;;;;;18.02;100.00;100498.16;5028913;28;20056;-82
2022/11/05 15:17:50;;;;;;;62.65;56.83;;;;;;;18.04;100.00;100496.03;5030571;28;20494;-83
2022/11/05 15:20:20;;;;;;;60.85;55.10;;;;;;;17.96;100.00;100495.72;5031896;28;20049;-82
2022/11/05 15:22:51;;;;;;;63.15;56.95;;;;;;;17.99;100.00;100505.94;5027299;28;20371;-83
2022/11/05 15:25:21;;;;;;;62.15;56.50;;;;;;;17.90;100.00;100504.81;5031178;28;20080;-83
2022/11/05 15:27:59;;;;;;;59.45;54.15;;;;;;;17.87;100.00;100492.69;5039273;28;20394;-84
2022/11/05 15:30:28;;;;;;;63.22;57.42;;;;;;;17.87;100.00;100499.94;5038555;28;20045;-82
2022/11/05 15:32:54;;;;;;;63.17;57.03;;;;;;;17.72;100.00;100503.31;5035301;28;20049;-84
2022/11/05 15:35:25;;;;;;;61.50;56.05;;;;;;;17.76;100.00;100507.94;5031449;28;20053;-84
2022/11/05 15:37:53;;;;;;;62.90;57.30;;;;;;;17.70;100.00;100514.34;5031766;28;20045;-82
2022/11/05 15:40:24;;;;;;;62.50;56.30;;;;;;;17.74;100.00;100518.09;5033327;28;20049;-83
2022/11/05 15:43:24;;;;;;;62.80;56.67;;;;;;;17.75;100.00;100529.66;5031652;28;20049;-84
2022/11/05 15:46:04;;;;;;;65.13;58.45;;;;;;;17.78;100.00;100529.16;4992594;28;20054;-85
2022/11/05 15:48:31;;;;;;;63.75;57.85;;;;;;;17.72;100.00;100541.72;4988077;28;20057;-84
2022/11/05 15:50:58;;;;;;;64.15;57.88;;;;;;;17.65;100.00;100545.72;5007735;28;20057;-83
2022/11/05 15:53:35;;;;;;;65.10;58.78;;;;;;;17.63;100.00;100548.63;5029530;28;20131;-84
2022/11/05 15:56:10;;;;;;;65.03;58.75;;;;;;;17.55;100.00;100551.78;5032442;28;20046;-83
2022/11/05 15:58:45;;;;;;;66.38;59.92;;;;;;;17.56;100.00;100551.53;5034706;28;20042;-84
2022/11/05 16:01:22;;;;;;;65.75;58.97;;;;;;;17.51;100.00;100564.91;5033074;28;20056;-82
2022/11/05 16:03:49;;;;;;;67.25;61.05;;;;;;;17.39;100.00;100565.06;5034537;28;20108;-82
2022/11/05 16:06:16;;;;;;;65.75;59.15;;;;;;;17.42;100.00;100565.63;5033601;28;20478;-83
2022/11/05 16:08:48;;;;;;;65.43;59.47;;;;;;;17.42;100.00;100571.81;5037325;28;20056;-86
2022/11/05 16:11:22;;;;;;;66.00;59.13;;;;;;;17.44;100.00;100572.38;5035397;28;20112;-84
2022/11/05 16:13:51;;;;;;;64.90;58.78;;;;;;;17.33;100.00;100576.81;5028173;28;20049;-83
2022/11/05 16:16:34;;;;;;;67.53;60.58;;;;;;;17.27;100.00;100585.91;5035511;28;20061;-83
2022/11/05 16:19:01;;;;;;;66.82;60.38;;;;;;;17.24;100.00;100586.41;5027982;28;20049;-83
2022/11/05 16:21:27;;;;;;;65.22;59.20;;;;;;;17.16;100.00;100586.88;5036214;28;20041;-83
2022/11/05 16:23:56;;;;;;;66.00;59.22;;;;;;;17.07;100.00;100601.81;5036065;28;20057;-83
2022/11/05 16:26:41;;;;;;;66.13;59.90;;;;;;;17.02;100.00;100597.19;5036490;28;20045;-83
2022/11/05 16:29:12;;;;;;;61.33;55.30;;;;;;;16.75;100.00;100605.16;5031175;28;20535;-83
2022/11/05 16:31:40;;;;;;;62.05;56.00;;;;;;;16.74;100.00;100614.25;5034342;28;20057;-82
2022/11/05 16:34:07;;;;;;;86.60;74.15;;;;;;;16.79;100.00;100617.03;5032502;28;20111;-82
2022/11/05 16:36:34;;;;;;;106.50;86.10;;;;;;;16.73;100.00;100615.31;5030929;28;20046;-84
2022/11/05 16:39:00;;;;;;;77.07;68.38;;;;;;;16.41;100.00;100623.19;5029397;28;20050;-85
2022/11/05 16:41:28;;;;;;;69.18;62.45;;;;;;;16.48;100.00;100616.59;5028914;28;20072;-83
2022/11/05 16:43:56;;;;;;;75.43;67.22;;;;;;;16.46;100.00;100626.78;5036752;28;20444;-84
2022/11/05 16:46:25;;;;;;;66.47;59.95;;;;;;;16.06;100.00;100631.50;5034590;28;20474;-83
2022/11/05 16:48:53;;;;;;;124.93;101.50;;;;;;;16.14;100.00;100637.28;5035227;28;20476;-86
2022/11/05 16:51:20;;;;;;;89.50;80.32;;;;;;;16.20;100.00;100638.97;5034858;28;20407;-84
2022/11/05 16:53:48;;;;;;;91.47;81.97;;;;;;;15.85;100.00;100639.22;5036258;28;20528;-84
2022/11/05 16:56:18;;;;;;;73.20;65.10;;;;;;;15.51;100.00;100644.50;5034988;28;20079;-86
2022/11/05 16:58:47;;;;;;;75.88;68.22;;;;;;;15.31;100.00;100641.44;5034090;28;20053;-83
2022/11/05 17:01:17;;;;;;;74.80;66.93;;;;;;;15.17;100.00;100640.13;5034307;28;20060;-85
2022/11/05 17:03:44;;;;;;;75.90;68.15;;;;;;;15.26;100.00;100642.16;5034438;28;20107;-85
2022/11/05 17:06:12;;;;;;;76.53;67.07;;;;;;;15.03;100.00;100635.03;5033687;28;20041;-86
2022/11/05 17:08:40;;;;;;;77.55;69.57;;;;;;;15.51;100.00;100646.38;5033879;28;20053;-86
2022/11/05 17:11:07;;;;;;;126.57;104.60;;;;;;;15.32;100.00;100640.41;5040502;28;20049;-83
2022/11/05 17:13:34;;;;;;;95.70;81.60;;;;;;;15.32;100.00;100643.06;5033057;28;20118;-83
2022/11/05 17:16:01;;;;;;;99.93;87.57;;;;;;;15.31;100.00;100649.47;5032689;28;20060;-84
2022/11/05 17:18:27;;;;;;;86.13;77.07;;;;;;;15.10;100.00;100650.97;5032091;28;20041;-85
2022/11/05 17:20:56;;;;;;;82.47;74.05;;;;;;;15.34;100.00;100660.53;5032571;28;20068;-83
2022/11/05 17:23:27;;;;;;;82.07;73.40;;;;;;;15.24;100.00;100660.31;5034367;28;20041;-84
2022/11/05 17:25:59;;;;;;;84.75;75.93;;;;;;;15.45;100.00;100656.16;5034588;28;20147;-83
2022/11/05 17:28:27;;;;;;;79.60;71.30;;;;;;;15.72;100.00;100652.94;5033324;28;20065;-85
2022/11/05 17:30:56;;;;;;;78.60;70.88;;;;;;;15.82;100.00;100657.63;5033518;28;20057;-84
2022/11/05 17:33:23;;;;;;;83.82;74.95;;;;;;;15.68;100.00;100665.19;5033759;28;20194;-83
2022/11/05 17:35:51;;;;;;;79.72;71.80;;;;;;;15.55;100.00;100669.75;5036307;28;20056;-83
2022/11/05 17:38:18;;;;;;;78.70;67.75;;;;;;;15.55;100.00;100674.25;5034217;28;20065;-84
2022/11/05 17:40:48;;;;;;;70.50;61.30;;;;;;;15.53;100.00;100673.72;5033306;28;20057;-84
2022/11/05 17:43:15;;;;;;;73.88;62.40;;;;;;;15.47;100.00;100670.13;5032523;28;20061;-84
2022/11/05 17:45:43;;;;;;;73.45;65.88;;;;;;;15.14;100.00;100673.50;5035048;28;20081;-85
2022/11/05 17:48:11;;;;;;;83.28;74.50;;;;;;;14.96;100.00;100674.47;5028310;28;20046;-84
2022/11/05 17:50:41;;;;;;;89.07;79.57;;;;;;;14.91;100.00;100679.69;5034583;28;20111;-84
2022/11/05 17:53:08;;;;;;;216.18;119.70;;;;;;;14.66;100.00;100675.44;5024144;28;20529;-83
2022/11/05 17:55:35;;;;;;;387.02;172.65;;;;;;;14.60;100.00;100680.91;5032733;28;20136;-84
2022/11/05 17:58:03;;;;;;;203.85;116.93;;;;;;;14.59;100.00;100677.41;5032104;28;20068;-84
2022/11/05 18:00:30;;;;;;;84.07;75.55;;;;;;;14.36;100.00;100688.88;5034801;28;20068;-82
2022/11/05 18:02:57;;;;;;;86.50;77.28;;;;;;;14.31;100.00;100688.78;5035549;28;20110;-82
2022/11/05 18:05:26;;;;;;;74.75;65.32;;;;;;;14.17;100.00;100685.50;5034607;28;20056;-85
2022/11/05 18:07:53;;;;;;;130.15;88.35;;;;;;;14.09;100.00;100701.84;5031017;28;20045;-83
2022/11/05 18:10:20;;;;;;;79.07;67.50;;;;;;;14.03;100.00;100702.75;5033095;28;20407;-83
2022/11/05 18:12:48;;;;;;;83.05;67.75;;;;;;;13.97;100.00;100698.34;5032530;28;20473;-85
2022/11/05 18:15:16;;;;;;;81.30;68.97;;;;;;;14.17;100.00;100692.72;5030707;28;20054;-87
2022/11/05 18:17:44;;;;;;;75.53;64.90;;;;;;;13.97;100.00;100699.16;5030399;28;20464;-85
2022/11/05 18:20:18;;;;;;;72.93;65.20;;;;;;;13.77;100.00;100698.66;5026630;28;20053;-83
2022/11/05 18:22:45;;;;;;;78.30;68.57;;;;;;;13.74;100.00;100696.44;5030279;28;20050;-84
2022/11/05 18:25:13;;;;;;;75.20;66.28;;;;;;;13.78;100.00;100708.28;5033000;28;20136;-83
2022/11/05 18:27:40;;;;;;;121.03;73.72;;;;;;;13.62;100.00;100715.06;5038291;28;20064;-85
2022/11/05 18:30:12;;;;;;;331.20;127.75;;;;;;;13.43;100.00;100722.28;5031137;28;20057;-82
2022/11/05 18:32:41;;;;;;;256.65;111.95;;;;;;;13.45;100.00;100724.72;5029630;28;20041;-84
2022/11/05 18:35:08;;;;;;;238.32;104.03;;;;;;;13.09;100.00;100722.88;5030388;28;20042;-85
2022/11/05 18:37:37;;;;;;;231.98;106.25;;;;;;;12.90;100.00;100722.88;5032648;28;20107;-83
2022/11/05 18:40:04;;;;;;;226.20;114.22;;;;;;;12.94;100.00;100721.38;5032346;28;20045;-83
2022/11/05 18:42:31;;;;;;;177.07;102.90;;;;;;;12.74;100.00;100715.44;5041076;28;20528;-84
2022/11/05 18:44:58;;;;;;;141.15;91.32;;;;;;;12.76;100.00;100721.34;5036100;28;20049;-84
2022/11/05 18:47:24;;;;;;;119.18;88.10;;;;;;;12.96;100.00;100726.50;5028596;28;20058;-85
2022/11/05 18:49:52;;;;;;;135.05;90.57;;;;;;;12.69;100.00;100733.94;5027627;28;20474;-83
2022/11/05 18:52:20;;;;;;;100.20;82.88;;;;;;;12.60;100.00;100733.41;5029919;28;20080;-83
2022/11/05 18:54:47;;;;;;;92.70;78.15;;;;;;;12.53;100.00;100732.66;5032840;28;20046;-83
2022/11/05 18:57:13;;;;;;;90.68;79.80;;;;;;;12.55;100.00;100738.56;5034443;28;20053;-84
2022/11/05 18:59:45;;;;;;;87.20;75.45;;;;;;;12.59;100.00;100735.25;5031507;28;20118;-83
2022/11/05 19:02:13;;;;;;;90.25;77.45;;;;;;;12.59;100.00;100734.44;5032880;28;20049;-85
2022/11/05 19:04:42;;;;;;;87.38;78.05;;;;;;;12.44;100.00;100744.63;5028934;28;20449;-83
2022/11/05 19:07:10;;;;;;;96.82;76.10;;;;;;;12.31;100.00;100750.84;5029361;28;20462;-83
2022/11/05 19:09:39;;;;;;;378.10;150.05;;;;;;;12.35;100.00;100747.53;5028727;28;20124;-86
2022/11/05 19:12:07;;;;;;;344.95;139.70;;;;;;;12.56;100.00;100743.69;5035930;28;20490;-85
2022/11/05 19:14:34;;;;;;;161.82;97.30;;;;;;;12.31;100.00;100741.00;5030672;28;20042;-85
2022/11/05 19:17:02;;;;;;;143.68;85.10;;;;;;;12.24;100.00;100745.56;5035774;28;20398;-83
2022/11/05 19:19:29;;;;;;;139.75;88.68;;;;;;;12.06;100.00;100758.81;5040805;28;20556;-83
2022/11/05 19:21:56;;;;;;;128.75;86.80;;;;;;;11.87;100.00;100753.38;5037612;28;20053;-84
2022/11/05 19:24:24;;;;;;;128.07;88.50;;;;;;;11.82;100.00;100752.34;5037119;28;20470;-84
2022/11/05 19:26:51;;;;;;;146.18;105.53;;;;;;;11.71;100.00;100753.84;5036343;28;20041;-83
2022/11/05 19:29:18;;;;;;;126.82;89.00;;;;;;;11.75;100.00;100754.25;5043256;28;20114;-83
2022/11/05 19:31:44;;;;;;;215.10;109.80;;;;;;;11.62;100.00;100758.59;5047030;28;20099;-84
2022/11/05 19:34:13;;;;;;;518.10;203.52;;;;;;;11.56;100.00;100756.78;5047294;28;20099;-84
2022/11/05 19:36:41;;;;;;;679.95;267.25;;;;;;;11.60;100.00;100765.16;5044348;28;20056;-85
2022/11/05 19:39:09;;;;;;;511.48;206.88;;;;;;;11.56;100.00;100767.44;5038591;28;20109;-85
2022/11/05 19:41:37;;;;;;;369.50;147.60;;;;;;;11.42;100.00;100773.81;5036068;28;20147;-82
2022/11/05 19:44:04;;;;;;;335.23;139.43;;;;;;;11.40;100.00;100770.53;5037517;28;20482;-84
2022/11/05 19:46:32;;;;;;;530.95;210.90;;;;;;;11.31;100.00;100772.59;5034744;28;20135;-84
2022/11/05 19:48:59;;;;;;;601.13;277.52;;;;;;;11.42;100.00;100771.16;5036168;28;20113;-83
2022/11/05 19:51:28;;;;;;;495.40;212.90;;;;;;;11.34;100.00;100766.06;5040170;28;20045;-83
2022/11/05 19:53:55;;;;;;;331.83;136.88;;;;;;;11.43;100.00;100775.44;5035537;28;20049;-82
2022/11/05 19:56:24;;;;;;;376.15;153.27;;;;;;;11.31;100.00;100775.25;5030937;28;20045;-82
2022/11/05 19:58:53;;;;;;;180.93;95.57;;;;;;;11.11;100.00;100772.69;5040663;28;20123;-83
2022/11/05 20:01:21;;;;;;;125.20;83.53;;;;;;;11.24;100.00;100782.44;5038505;28;20469;-82
2022/11/05 20:03:48;;;;;;;235.57;118.05;;;;;;;11.37;100.00;100782.41;5030849;28;20052;-83
2022/11/05 20:06:17;;;;;;;158.90;95.97;;;;;;;11.48;100.00;100785.47;5034517;28;20056;-83
2022/11/05 20:08:44;;;;;;;186.07;110.22;;;;;;;11.33;100.00;100777.72;5038695;28;20049;-83
2022/11/05 20:11:11;;;;;;;128.38;84.80;;;;;;;11.27;100.00;100779.38;5034096;28;20077;-85
2022/11/05 20:13:38;;;;;;;193.95;108.50;;;;;;;11.12;100.00;100779.63;5034271;28;20041;-83
2022/11/05 20:16:07;;;;;;;268.05;149.48;;;;;;;11.12;100.00;100790.25;5034793;28;20045;-83
2022/11/05 20:18:34;;;;;;;275.10;151.45;;;;;;;11.27;100.00;100789.19;5036674;28;20466;-82
2022/11/05 20:21:03;;;;;;;176.05;106.40;;;;;;;11.00;100.00;100784.75;5032767;28;20041;-83
2022/11/05 20:23:32;;;;;;;175.65;102.88;;;;;;;11.07;100.00;100783.91;5032125;28;20042;-83
2022/11/05 20:26:00;;;;;;;163.73;97.15;;;;;;;10.93;100.00;100783.94;4994747;28;20045;-82
2022/11/05 20:28:27;;;;;;;114.70;79.63;;;;;;;10.93;100.00;100802.56;5038212;28;20398;-83
2022/11/05 20:30:56;;;;;;;104.72;81.07;;;;;;;10.82;100.00;100795.19;5035613;28;20049;-83
2022/11/05 20:33:26;;;;;;;104.95;85.07;;;;;;;11.13;100.00;100783.91;5037239;28;20084;-85
2022/11/05 20:35:53;;;;;;;370.00;177.40;;;;;;;10.81;100.00;100798.06;5036028;28;20046;-83
2022/11/05 20:38:19;;;;;;;178.43;105.63;;;;;;;10.82;100.00;100805.81;5035296;28;20060;-83
2022/11/05 20:40:46;;;;;;;158.23;99.82;;;;;;;10.93;100.00;100807.88;5034635;28;20057;-83
2022/11/05 20:43:13;;;;;;;150.30;95.22;;;;;;;10.81;100.00;100798.88;5037013;28;20045;-84
2022/11/05 20:45:40;;;;;;;156.80;97.78;;;;;;;10.85;100.00;100786.81;5031140;28;20378;-85
2022/11/05 20:48:07;;;;;;;131.48;87.68;;;;;;;10.70;100.00;100805.63;5034969;28;20056;-83
2022/11/05 20:50:35;;;;;;;110.65;78.70;;;;;;;10.58;100.00;100791.31;5031990;28;20435;-83
2022/11/05 20:53:01;;;;;;;103.20;78.93;;;;;;;10.67;100.00;100791.94;5034619;28;20115;-83
2022/11/05 20:55:28;;;;;;;84.25;72.10;;;;;;;10.25;100.00;100807.97;5034913;28;20056;-83
2022/11/05 20:57:55;;;;;;;103.57;81.65;;;;;;;10.61;100.00;100796.22;5034520;28;20053;-84
2022/11/05 21:00:22;;;;;;;96.25;73.20;;;;;;;10.41;100.00;100798.88;5034121;28;20049;-82
2022/11/05 21:02:49;;;;;;;99.10;75.57;;;;;;;10.40;100.00;100809.69;5028670;28;20056;-84
2022/11/05 21:05:16;;;;;;;117.45;81.60;;;;;;;10.75;100.00;100810.31;5030028;28;20053;-83
2022/11/05 21:07:44;;;;;;;115.32;78.13;;;;;;;10.91;100.00;100801.94;5034660;28;20076;-84
2022/11/05 21:10:11;;;;;;;96.43;77.35;;;;;;;10.96;100.00;100804.78;5031677;28;20548;-83
2022/11/05 21:12:38;;;;;;;87.15;72.70;;;;;;;10.50;100.00;100802.97;5034504;28;20475;-83
2022/11/05 21:15:05;;;;;;;87.78;68.63;;;;;;;10.31;100.00;100814.34;5037334;28;20056;-83
2022/11/05 21:17:32;;;;;;;88.95;71.35;;;;;;;10.35;100.00;100810.31;5037159;28;20088;-86
2022/11/05 21:19:59;;;;;;;95.22;75.13;;;;;;;10.46;100.00;100814.19;5033286;28;20054;-85
2022/11/05 21:22:26;;;;;;;94.03;69.00;;;;;;;10.03;100.00;100812.63;5036862;28;20050;-82
2022/11/05 21:24:55;;;;;;;106.40;79.13;;;;;;;10.10;100.00;100820.59;5031566;28;20042;-84
2022/11/05 21:27:22;;;;;;;121.93;87.93;;;;;;;10.01;100.00;100808.53;5038415;28;20195;-85
2022/11/05 21:29:49;;;;;;;106.38;81.28;;;;;;;10.13;100.00;100803.47;5031609;28;20049;-84
2022/11/05 21:32:15;;;;;;;107.20;76.70;;;;;;;10.19;100.00;100805.31;5029320;28;20041;-83
2022/11/05 21:34:43;;;;;;;94.97;72.70;;;;;;;9.77;100.00;100805.44;5031904;28;20053;-85
2022/11/05 21:37:10;;;;;;;100.13;72.05;;;;;;;9.64;100.00;100805.34;5037538;28;20456;-85
2022/11/05 21:39:37;;;;;;;90.07;74.25;;;;;;;9.55;100.00;100807.34;5029158;28;20489;-83
2022/11/05 21:42:05;;;;;;;88.38;68.10;;;;;;;9.73;100.00;100806.00;5027641;28;20115;-84
2022/11/05 21:44:32;;;;;;;76.88;62.85;;;;;;;9.91;100.00;100811.56;5036998;28;20056;-84
2022/11/05 21:46:59;;;;;;;86.97;66.13;;;;;;;9.74;100.00;100815.59;5034118;28;20382;-83
2022/11/05 21:49:25;;;;;;;84.05;63.08;;;;;;;9.70;100.00;100815.16;5034025;28;20057;-84